sensor_id;sensor_type;location;lat;lon;timestamp;pressure;altitude;pressure_sealevel;temperature;humidity
1029;BME280;503;48.120;11.488;2022-07-01T00:01:37;95197.25;;;22.19;63.42
1029;BME280;503;48.120;11.488;2022-07-01T00:04:03;95219.09;;;21.93;64.90
1029;BME280;503;48.120;11.488;2022-07-01T00:06:29;95269.63;;;21.78;66.42
1029;BME280;503;48.120;11.488;2022-07-01T00:08:54;95199.72;;;21.13;67.21
1029;BME280;503;48.120;11.488;2022-07-01T00:11:20;95182.56;;;20.98;67.34
1029;BME280;503;48.120;11.488;2022-07-01T00:13:45;95184.03;;;20.92;67.32
1029;BME280;503;48.120;11.488;2022-07-01T00:16:11;95217.66;;;20.91;67.60
1029;BME280;503;48.120;11.488;2022-07-01T00:18:36;95258.41;;;21.09;66.60
1029;BME280;503;48.120;11.488;2022-07-01T00:21:02;95183.53;;;20.83;65.98
1029;BME280;503;48.120;11.488;2022-07-01T00:23:28;95220.84;;;21.00;65.70
1029;BME280;503;48.120;11.488;2022-07-01T00:25:53;95215.91;;;20.75;65.75
1029;BME280;503;48.120;11.488;2022-07-01T00:28:19;95194.88;;;20.62;65.13
1029;BME280;503;48.120;11.488;2022-07-01T00:30:44;95231.94;;;20.61;64.77
1029;BME280;503;48.120;11.488;2022-07-01T00:33:10;95210.50;;;20.75;63.38
1029;BME280;503;48.120;11.488;2022-07-01T00:35:35;95224.22;;;20.93;63.17
1029;BME280;503;48.120;11.488;2022-07-01T00:38:01;95223.44;;;20.93;61.93
1029;BME280;503;48.120;11.488;2022-07-01T00:40:26;95230.25;;;20.80;61.67
1029;BME280;503;48.120;11.488;2022-07-01T00:42:51;95273.19;;;21.15;61.26
1029;BME280;503;48.120;11.488;2022-07-01T00:45:17;95290.38;;;21.29;61.26
1029;BME280;503;48.120;11.488;2022-07-01T00:47:43;95245.00;;;21.16;60.33
1029;BME280;503;48.120;11.488;2022-07-01T00:50:11;95233.59;;;20.99;60.37
1029;BME280;503;48.120;11.488;2022-07-01T00:52:38;95227.97;;;21.15;59.70
1029;BME280;503;48.120;11.488;2022-07-01T00:55:06;95265.25;;;20.69;61.68
1029;BME280;503;48.120;11.488;2022-07-01T00:57:33;95287.63;;;21.26;59.72
1029;BME280;503;48.120;11.488;2022-07-01T01:00:01;95278.75;;;20.42;60.58
1029;BME280;503;48.120;11.488;2022-07-01T01:02:26;95250.13;;;20.38;60.40
1029;BME280;503;48.120;11.488;2022-07-01T01:04:51;95228.19;;;20.43;59.58
1029;BME280;503;48.120;11.488;2022-07-01T01:07:17;95267.72;;;20.81;58.86
1029;BME280;503;48.120;11.488;2022-07-01T01:09:42;95321.34;;;21.32;58.10
1029;BME280;503;48.120;11.488;2022-07-01T01:12:08;95258.19;;;21.21;57.60
1029;BME280;503;48.120;11.488;2022-07-01T01:14:49;95320.38;;;21.85;56.59
1029;BME280;503;48.120;11.488;2022-07-01T01:17:16;95309.97;;;22.27;54.74
1029;BME280;503;48.120;11.488;2022-07-01T01:19:42;95311.47;;;22.73;54.43
1029;BME280;503;48.120;11.488;2022-07-01T01:22:09;95316.09;;;22.21;55.32
1029;BME280;503;48.120;11.488;2022-07-01T01:24:35;95296.31;;;21.12;58.68
1029;BME280;503;48.120;11.488;2022-07-01T01:27:05;95303.75;;;21.49;58.23
1029;BME280;503;48.120;11.488;2022-07-01T01:29:31;95307.91;;;21.09;58.90
1029;BME280;503;48.120;11.488;2022-07-01T01:31:56;95315.69;;;20.84;60.81
1029;BME280;503;48.120;11.488;2022-07-01T01:34:21;95302.16;;;21.44;58.11
1029;BME280;503;48.120;11.488;2022-07-01T01:36:47;95305.78;;;21.25;59.17
1029;BME280;503;48.120;11.488;2022-07-01T01:39:12;95292.94;;;21.19;59.19
1029;BME280;503;48.120;11.488;2022-07-01T01:41:44;95297.50;;;21.41;58.61
1029;BME280;503;48.120;11.488;2022-07-01T01:44:10;95280.69;;;20.98;59.61
1029;BME280;503;48.120;11.488;2022-07-01T01:46:36;95295.34;;;20.67;61.29
1029;BME280;503;48.120;11.488;2022-07-01T01:49:03;95271.50;;;20.46;61.99
1029;BME280;503;48.120;11.488;2022-07-01T01:51:29;95287.38;;;21.08;60.57
1029;BME280;503;48.120;11.488;2022-07-01T01:53:54;95267.09;;;20.91;60.87
1029;BME280;503;48.120;11.488;2022-07-01T01:56:20;95273.72;;;20.94;61.21
1029;BME280;503;48.120;11.488;2022-07-01T01:58:46;95282.44;;;21.14;60.64
1029;BME280;503;48.120;11.488;2022-07-01T02:01:12;95282.47;;;20.87;61.82
1029;BME280;503;48.120;11.488;2022-07-01T02:03:38;95286.94;;;21.02;61.37
1029;BME280;503;48.120;11.488;2022-07-01T02:06:06;95283.50;;;21.36;60.17
1029;BME280;503;48.120;11.488;2022-07-01T02:08:32;95294.63;;;21.00;61.96
1029;BME280;503;48.120;11.488;2022-07-01T02:10:57;95282.44;;;20.84;61.67
1029;BME280;503;48.120;11.488;2022-07-01T02:13:23;95287.34;;;21.05;61.04
1029;BME280;503;48.120;11.488;2022-07-01T02:15:48;95292.25;;;21.25;61.07
1029;BME280;503;48.120;11.488;2022-07-01T02:18:14;95304.84;;;21.44;60.03
1029;BME280;503;48.120;11.488;2022-07-01T02:20:40;95305.34;;;20.93;61.62
1029;BME280;503;48.120;11.488;2022-07-01T02:23:06;95305.94;;;20.80;62.40
1029;BME280;503;48.120;11.488;2022-07-01T02:25:31;95308.66;;;20.80;62.50
1029;BME280;503;48.120;11.488;2022-07-01T02:27:57;95313.91;;;20.46;63.48
1029;BME280;503;48.120;11.488;2022-07-01T02:30:23;95318.09;;;20.66;62.97
1029;BME280;503;48.120;11.488;2022-07-01T02:32:49;95325.03;;;20.90;62.30
1029;BME280;503;48.120;11.488;2022-07-01T02:35:14;95314.03;;;21.06;61.03
1029;BME280;503;48.120;11.488;2022-07-01T02:37:39;95328.94;;;21.53;59.92
1029;BME280;503;48.120;11.488;2022-07-01T02:40:05;95333.69;;;21.63;59.79
1029;BME280;503;48.120;11.488;2022-07-01T02:42:31;95342.75;;;21.78;59.48
1029;BME280;503;48.120;11.488;2022-07-01T02:45:01;95348.31;;;22.29;58.19
1029;BME280;503;48.120;11.488;2022-07-01T02:47:35;95344.63;;;21.74;59.58
1029;BME280;503;48.120;11.488;2022-07-01T02:50:01;95348.31;;;22.29;58.10
1029;BME280;503;48.120;11.488;2022-07-01T02:52:26;95341.72;;;22.27;57.50
1029;BME280;503;48.120;11.488;2022-07-01T02:54:52;95349.59;;;22.46;57.65
1029;BME280;503;48.120;11.488;2022-07-01T02:57:17;95351.34;;;22.69;56.81
1029;BME280;503;48.120;11.488;2022-07-01T02:59:43;95339.72;;;22.68;56.69
1029;BME280;503;48.120;11.488;2022-07-01T03:02:08;95334.84;;;22.40;57.04
1029;BME280;503;48.120;11.488;2022-07-01T03:04:33;95337.75;;;22.65;57.19
1029;BME280;503;48.120;11.488;2022-07-01T03:06:59;95342.53;;;22.35;57.67
1029;BME280;503;48.120;11.488;2022-07-01T03:09:24;95344.47;;;21.60;59.92
1029;BME280;503;48.120;11.488;2022-07-01T03:11:50;95326.84;;;21.13;61.41
1029;BME280;503;48.120;11.488;2022-07-01T03:14:15;95346.38;;;21.93;59.26
1029;BME280;503;48.120;11.488;2022-07-01T03:16:40;95364.22;;;21.97;58.87
1029;BME280;503;48.120;11.488;2022-07-01T03:19:06;95357.31;;;22.03;58.73
1029;BME280;503;48.120;11.488;2022-07-01T03:21:31;95360.78;;;22.38;57.82
1029;BME280;503;48.120;11.488;2022-07-01T03:23:58;95364.72;;;22.06;58.19
1029;BME280;503;48.120;11.488;2022-07-01T03:26:23;95373.06;;;21.91;59.25
1029;BME280;503;48.120;11.488;2022-07-01T03:28:48;95376.47;;;22.18;58.50
1029;BME280;503;48.120;11.488;2022-07-01T03:31:14;95358.59;;;21.76;59.84
1029;BME280;503;48.120;11.488;2022-07-01T03:33:39;95363.22;;;21.42;60.97
1029;BME280;503;48.120;11.488;2022-07-01T03:36:05;95363.91;;;21.35;61.02
1029;BME280;503;48.120;11.488;2022-07-01T03:38:30;95351.00;;;21.55;60.84
1029;BME280;503;48.120;11.488;2022-07-01T03:40:55;95352.19;;;21.95;59.24
1029;BME280;503;48.120;11.488;2022-07-01T03:43:21;95357.25;;;21.96;59.36
1029;BME280;503;48.120;11.488;2022-07-01T03:45:46;95362.59;;;22.26;58.54
1029;BME280;503;48.120;11.488;2022-07-01T03:48:11;95346.50;;;21.66;59.72
1029;BME280;503;48.120;11.488;2022-07-01T03:50:37;95343.69;;;21.93;59.29
1029;BME280;503;48.120;11.488;2022-07-01T03:53:02;95350.91;;;21.82;59.67
1029;BME280;503;48.120;11.488;2022-07-01T03:55:46;95376.78;;;21.75;59.56
1029;BME280;503;48.120;11.488;2022-07-01T03:58:11;95375.06;;;21.97;59.44
1029;BME280;503;48.120;11.488;2022-07-01T04:00:37;95368.56;;;22.43;57.88
1029;BME280;503;48.120;11.488;2022-07-01T04:03:04;95388.59;;;22.79;57.32
1029;BME280;503;48.120;11.488;2022-07-01T04:05:32;95382.97;;;22.98;56.71
1029;BME280;503;48.120;11.488;2022-07-01T04:07:58;95385.38;;;23.14;56.48
1029;BME280;503;48.120;11.488;2022-07-01T04:10:23;95368.34;;;23.17;56.31
1029;BME280;503;48.120;11.488;2022-07-01T04:12:49;95382.03;;;23.42;55.40
1029;BME280;503;48.120;11.488;2022-07-01T04:15:14;95377.44;;;23.53;55.28
1029;BME280;503;48.120;11.488;2022-07-01T04:17:39;95359.19;;;23.47;54.80
1029;BME280;503;48.120;11.488;2022-07-01T04:20:05;95358.78;;;23.45;54.54
1029;BME280;503;48.120;11.488;2022-07-01T04:22:31;95345.59;;;23.43;54.54
1029;BME280;503;48.120;11.488;2022-07-01T04:25:01;95345.66;;;23.61;54.79
1029;BME280;503;48.120;11.488;2022-07-01T04:27:28;95329.41;;;23.68;54.42
1029;BME280;503;48.120;11.488;2022-07-01T04:29:54;95324.75;;;23.69;54.29
1029;BME280;503;48.120;11.488;2022-07-01T04:32:19;95325.31;;;23.16;55.19
1029;BME280;503;48.120;11.488;2022-07-01T04:34:45;95318.75;;;23.27;54.50
1029;BME280;503;48.120;11.488;2022-07-01T04:37:10;95325.44;;;23.48;54.32
1029;BME280;503;48.120;11.488;2022-07-01T04:39:35;95354.88;;;23.39;53.69
1029;BME280;503;48.120;11.488;2022-07-01T04:42:01;95357.88;;;23.16;54.26
1029;BME280;503;48.120;11.488;2022-07-01T04:44:28;95353.31;;;23.38;54.43
1029;BME280;503;48.120;11.488;2022-07-01T04:46:53;95332.06;;;23.50;54.02
1029;BME280;503;48.120;11.488;2022-07-01T04:49:18;95341.06;;;23.69;54.48
1029;BME280;503;48.120;11.488;2022-07-01T04:51:44;95336.06;;;23.81;53.78
1029;BME280;503;48.120;11.488;2022-07-01T04:54:09;95314.72;;;23.87;52.80
1029;BME280;503;48.120;11.488;2022-07-01T04:56:36;95309.69;;;24.00;53.01
1029;BME280;503;48.120;11.488;2022-07-01T04:59:01;95279.00;;;23.78;53.15
1029;BME280;503;48.120;11.488;2022-07-01T05:01:27;95287.47;;;23.55;53.52
1029;BME280;503;48.120;11.488;2022-07-01T05:03:53;95274.88;;;23.04;54.48
1029;BME280;503;48.120;11.488;2022-07-01T05:06:19;95295.22;;;22.76;55.57
1029;BME280;503;48.120;11.488;2022-07-01T05:08:44;95314.53;;;22.68;55.92
1029;BME280;503;48.120;11.488;2022-07-01T05:11:10;95327.50;;;22.96;55.18
1029;BME280;503;48.120;11.488;2022-07-01T05:13:36;95345.53;;;23.32;55.41
1029;BME280;503;48.120;11.488;2022-07-01T05:16:01;95350.31;;;23.60;54.12
1029;BME280;503;48.120;11.488;2022-07-01T05:18:28;95327.38;;;23.54;53.59
1029;BME280;503;48.120;11.488;2022-07-01T05:21:12;95347.63;;;22.91;55.39
1029;BME280;503;48.120;11.488;2022-07-01T05:23:56;95336.28;;;23.48;55.49
1029;BME280;503;48.120;11.488;2022-07-01T05:26:21;95328.28;;;23.83;55.24
1029;BME280;503;48.120;11.488;2022-07-01T05:28:47;95327.94;;;23.99;53.68
1029;BME280;503;48.120;11.488;2022-07-01T05:31:13;95323.69;;;24.12;53.20
1029;BME280;503;48.120;11.488;2022-07-01T05:33:39;95333.13;;;23.31;54.53
1029;BME280;503;48.120;11.488;2022-07-01T05:36:05;95342.16;;;22.88;56.47
1029;BME280;503;48.120;11.488;2022-07-01T05:38:30;95343.94;;;22.66;57.16
1029;BME280;503;48.120;11.488;2022-07-01T05:40:56;95345.03;;;23.13;56.36
1029;BME280;503;48.120;11.488;2022-07-01T05:43:21;95353.69;;;21.89;58.70
1029;BME280;503;48.120;11.488;2022-07-01T05:45:47;95371.44;;;22.20;58.39
1029;BME280;503;48.120;11.488;2022-07-01T05:48:12;95383.81;;;21.84;59.26
1029;BME280;503;48.120;11.488;2022-07-01T05:50:39;95401.97;;;22.13;59.33
1029;BME280;503;48.120;11.488;2022-07-01T05:53:05;95406.53;;;22.46;58.48
1029;BME280;503;48.120;11.488;2022-07-01T05:55:30;95401.91;;;22.50;58.19
1029;BME280;503;48.120;11.488;2022-07-01T05:57:55;95389.47;;;22.46;58.23
1029;BME280;503;48.120;11.488;2022-07-01T06:00:21;95395.25;;;23.47;56.38
1029;BME280;503;48.120;11.488;2022-07-01T06:02:46;95392.38;;;22.67;57.72
1029;BME280;503;48.120;11.488;2022-07-01T06:05:11;95381.13;;;22.21;59.54
1029;BME280;503;48.120;11.488;2022-07-01T06:07:39;95391.84;;;22.51;58.52
1029;BME280;503;48.120;11.488;2022-07-01T06:10:06;95399.09;;;22.88;57.63
1029;BME280;503;48.120;11.488;2022-07-01T06:12:32;95408.47;;;23.59;55.35
1029;BME280;503;48.120;11.488;2022-07-01T06:14:57;95408.06;;;22.44;56.95
1029;BME280;503;48.120;11.488;2022-07-01T06:17:22;95420.13;;;21.49;60.74
1029;BME280;503;48.120;11.488;2022-07-01T06:19:48;95412.38;;;21.77;59.51
1029;BME280;503;48.120;11.488;2022-07-01T06:22:13;95422.97;;;21.60;60.36
1029;BME280;503;48.120;11.488;2022-07-01T06:24:42;95440.66;;;21.50;60.40
1029;BME280;503;48.120;11.488;2022-07-01T06:27:07;95441.06;;;21.52;60.57
1029;BME280;503;48.120;11.488;2022-07-01T06:29:34;95448.53;;;21.09;62.94
1029;BME280;503;48.120;11.488;2022-07-01T06:32:00;95450.19;;;21.17;62.46
1029;BME280;503;48.120;11.488;2022-07-01T06:34:25;95457.28;;;20.76;63.63
1029;BME280;503;48.120;11.488;2022-07-01T06:36:50;95427.38;;;21.71;61.11
1029;BME280;503;48.120;11.488;2022-07-01T06:39:16;95434.88;;;21.85;59.64
1029;BME280;503;48.120;11.488;2022-07-01T06:41:41;95446.16;;;21.57;60.91
1029;BME280;503;48.120;11.488;2022-07-01T06:44:06;95448.63;;;22.37;58.37
1029;BME280;503;48.120;11.488;2022-07-01T06:46:32;95457.38;;;22.60;57.07
1029;BME280;503;48.120;11.488;2022-07-01T06:48:58;95444.09;;;21.77;59.34
1029;BME280;503;48.120;11.488;2022-07-01T06:51:23;95435.84;;;22.34;57.97
1029;BME280;503;48.120;11.488;2022-07-01T06:53:49;95457.41;;;21.93;58.76
1029;BME280;503;48.120;11.488;2022-07-01T06:56:15;95385.84;;;21.94;58.34
1029;BME280;503;48.120;11.488;2022-07-01T06:58:40;95407.53;;;21.07;60.67
1029;BME280;503;48.120;11.488;2022-07-01T07:01:06;95442.28;;;21.58;59.65
1029;BME280;503;48.120;11.488;2022-07-01T07:03:31;95444.97;;;21.88;58.98
1029;BME280;503;48.120;11.488;2022-07-01T07:05:58;95429.31;;;22.04;58.09
1029;BME280;503;48.120;11.488;2022-07-01T07:08:25;95455.00;;;22.55;57.26
1029;BME280;503;48.120;11.488;2022-07-01T07:10:50;95412.72;;;22.43;56.65
1029;BME280;503;48.120;11.488;2022-07-01T07:13:16;95449.47;;;22.07;58.10
1029;BME280;503;48.120;11.488;2022-07-01T07:15:41;95443.88;;;22.26;57.78
1029;BME280;503;48.120;11.488;2022-07-01T07:18:07;95452.94;;;22.08;57.92
1029;BME280;503;48.120;11.488;2022-07-01T07:20:33;95465.03;;;22.47;57.66
1029;BME280;503;48.120;11.488;2022-07-01T07:22:59;95463.03;;;20.97;62.37
1029;BME280;503;48.120;11.488;2022-07-01T07:25:24;95476.25;;;21.52;60.73
1029;BME280;503;48.120;11.488;2022-07-01T07:27:50;95471.78;;;21.37;60.52
1029;BME280;503;48.120;11.488;2022-07-01T07:30:16;95461.06;;;20.71;61.68
1029;BME280;503;48.120;11.488;2022-07-01T07:32:41;95479.56;;;20.92;61.47
1029;BME280;503;48.120;11.488;2022-07-01T07:35:07;95461.63;;;21.07;60.73
1029;BME280;503;48.120;11.488;2022-07-01T07:37:33;95461.84;;;20.30;63.22
1029;BME280;503;48.120;11.488;2022-07-01T07:39:59;95441.06;;;20.76;60.88
1029;BME280;503;48.120;11.488;2022-07-01T07:42:26;95472.47;;;20.61;62.39
1029;BME280;503;48.120;11.488;2022-07-01T07:44:51;95452.13;;;21.17;60.03
1029;BME280;503;48.120;11.488;2022-07-01T07:47:17;95475.75;;;20.97;61.11
1029;BME280;503;48.120;11.488;2022-07-01T07:49:42;95496.47;;;19.85;65.33
1029;BME280;503;48.120;11.488;2022-07-01T07:52:07;95490.44;;;19.72;65.08
1029;BME280;503;48.120;11.488;2022-07-01T07:54:33;95437.72;;;19.79;64.58
1029;BME280;503;48.120;11.488;2022-07-01T07:56:58;95481.13;;;19.35;66.26
1029;BME280;503;48.120;11.488;2022-07-01T07:59:24;95521.84;;;19.14;69.10
1029;BME280;503;48.120;11.488;2022-07-01T08:01:49;95505.84;;;18.74;68.96
1029;BME280;503;48.120;11.488;2022-07-01T08:04:14;95522.38;;;18.16;71.23
1029;BME280;503;48.120;11.488;2022-07-01T08:06:40;95535.44;;;17.12;75.09
1029;BME280;503;48.120;11.488;2022-07-01T08:09:05;95553.69;;;16.95;76.13
1029;BME280;503;48.120;11.488;2022-07-01T08:11:31;95538.78;;;16.52;76.43
1029;BME280;503;48.120;11.488;2022-07-01T08:13:56;95584.34;;;16.60;76.84
1029;BME280;503;48.120;11.488;2022-07-01T08:16:22;95591.28;;;15.57;82.07
1029;BME280;503;48.120;11.488;2022-07-01T08:18:47;95571.69;;;14.97;81.38
1029;BME280;503;48.120;11.488;2022-07-01T08:21:13;95625.16;;;15.23;83.21
1029;BME280;503;48.120;11.488;2022-07-01T08:23:38;95623.59;;;14.67;83.53
1029;BME280;503;48.120;11.488;2022-07-01T08:26:04;95615.22;;;14.42;83.61
1029;BME280;503;48.120;11.488;2022-07-01T08:28:29;95617.13;;;14.68;83.30
1029;BME280;503;48.120;11.488;2022-07-01T08:30:55;95621.69;;;14.85;83.52
1029;BME280;503;48.120;11.488;2022-07-01T08:33:20;95633.91;;;14.94;83.34
1029;BME280;503;48.120;11.488;2022-07-01T08:35:46;95649.72;;;14.44;86.39
1029;BME280;503;48.120;11.488;2022-07-01T08:38:12;95658.53;;;14.88;85.29
1029;BME280;503;48.120;11.488;2022-07-01T08:40:37;95653.06;;;14.49;86.52
1029;BME280;503;48.120;11.488;2022-07-01T08:43:05;95659.78;;;14.90;85.73
1029;BME280;503;48.120;11.488;2022-07-01T08:45:32;95655.34;;;15.03;84.82
1029;BME280;503;48.120;11.488;2022-07-01T08:47:59;95655.22;;;14.21;85.55
1029;BME280;503;48.120;11.488;2022-07-01T08:50:39;95666.91;;;15.33;83.51
1029;BME280;503;48.120;11.488;2022-07-01T08:53:06;95647.38;;;15.24;82.13
1029;BME280;503;48.120;11.488;2022-07-01T08:55:32;95668.38;;;15.22;82.64
1029;BME280;503;48.120;11.488;2022-07-01T08:57:58;95638.25;;;14.61;82.75
1029;BME280;503;48.120;11.488;2022-07-01T09:00:31;95662.41;;;15.16;82.16
1029;BME280;503;48.120;11.488;2022-07-01T09:05:24;95667.34;;;14.88;82.27
1029;BME280;503;48.120;11.488;2022-07-01T09:07:56;95650.69;;;14.65;82.16
1029;BME280;503;48.120;11.488;2022-07-01T09:10:23;95666.38;;;15.10;81.63
1029;BME280;503;48.120;11.488;2022-07-01T09:12:49;95668.28;;;14.92;82.58
1029;BME280;503;48.120;11.488;2022-07-01T09:15:29;95668.88;;;15.06;82.41
1029;BME280;503;48.120;11.488;2022-07-01T09:18:02;95659.91;;;15.02;82.93
1029;BME280;503;48.120;11.488;2022-07-01T09:20:38;95630.63;;;14.97;82.10
1029;BME280;503;48.120;11.488;2022-07-01T09:23:13;95631.06;;;16.05;78.65
1029;BME280;503;48.120;11.488;2022-07-01T09:25:41;95647.34;;;15.41;79.90
1029;BME280;503;48.120;11.488;2022-07-01T09:28:12;95659.41;;;15.56;79.35
1029;BME280;503;48.120;11.488;2022-07-01T09:30:40;95641.19;;;15.41;80.64
1029;BME280;503;48.120;11.488;2022-07-01T09:35:35;95664.41;;;15.28;82.37
1029;BME280;503;48.120;11.488;2022-07-01T09:38:02;95658.09;;;15.71;80.88
1029;BME280;503;48.120;11.488;2022-07-01T09:48:22;95677.53;;;15.21;82.46
1029;BME280;503;48.120;11.488;2022-07-01T09:50:48;95679.25;;;15.17;81.40
1029;BME280;503;48.120;11.488;2022-07-01T09:53:14;95677.47;;;16.06;77.99
1029;BME280;503;48.120;11.488;2022-07-01T09:55:41;95674.13;;;15.88;78.97
1029;BME280;503;48.120;11.488;2022-07-01T09:58:06;95678.81;;;16.42;78.06
1029;BME280;503;48.120;11.488;2022-07-01T10:00:32;95673.34;;;16.08;79.01
1029;BME280;503;48.120;11.488;2022-07-01T10:03:00;95677.44;;;15.85;80.15
1029;BME280;503;48.120;11.488;2022-07-01T10:05:27;95689.38;;;16.17;79.40
1029;BME280;503;48.120;11.488;2022-07-01T10:13:23;95708.66;;;16.19;76.85
1029;BME280;503;48.120;11.488;2022-07-01T10:15:49;95713.56;;;15.88;78.10
1029;BME280;503;48.120;11.488;2022-07-01T10:18:24;95716.31;;;16.29;76.95
1029;BME280;503;48.120;11.488;2022-07-01T10:20:51;95695.63;;;16.30;76.00
1029;BME280;503;48.120;11.488;2022-07-01T10:23:20;95704.25;;;16.15;76.60
1029;BME280;503;48.120;11.488;2022-07-01T10:25:48;95706.25;;;15.97;77.69
1029;BME280;503;48.120;11.488;2022-07-01T10:30:55;95734.06;;;15.92;77.37
1029;BME280;503;48.120;11.488;2022-07-01T10:33:47;95733.63;;;16.11;77.21
1029;BME280;503;48.120;11.488;2022-07-01T10:44:19;95731.28;;;16.60;76.03
1029;BME280;503;48.120;11.488;2022-07-01T10:46:51;95734.31;;;17.00;74.97
1029;BME280;503;48.120;11.488;2022-07-01T10:52:06;95718.84;;;17.09;72.21
1029;BME280;503;48.120;11.488;2022-07-01T10:59:46;95732.28;;;18.12;71.34
1029;BME280;503;48.120;11.488;2022-07-01T11:02:24;95696.38;;;17.84;69.97
1029;BME280;503;48.120;11.488;2022-07-01T11:04:52;95733.00;;;17.64;71.60
1029;BME280;503;48.120;11.488;2022-07-01T11:07:18;95711.19;;;17.78;70.48
1029;BME280;503;48.120;11.488;2022-07-01T11:09:44;95739.47;;;16.63;74.40
1029;BME280;503;48.120;11.488;2022-07-01T11:12:09;95741.91;;;16.27;75.93
1029;BME280;503;48.120;11.488;2022-07-01T11:14:40;95703.94;;;16.58;76.12
1029;BME280;503;48.120;11.488;2022-07-01T11:17:06;95697.19;;;16.94;75.63
1029;BME280;503;48.120;11.488;2022-07-01T11:19:32;95713.50;;;16.47;77.19
1029;BME280;503;48.120;11.488;2022-07-01T11:21:57;95713.47;;;16.55;75.84
1029;BME280;503;48.120;11.488;2022-07-01T11:24:23;95740.38;;;16.17;77.33
1029;BME280;503;48.120;11.488;2022-07-01T11:26:49;95758.88;;;16.19;78.51
1029;BME280;503;48.120;11.488;2022-07-01T11:29:27;95745.84;;;16.29;77.82
1029;BME280;503;48.120;11.488;2022-07-01T11:31:52;95718.34;;;16.32;77.48
1029;BME280;503;48.120;11.488;2022-07-01T11:34:18;95749.50;;;16.54;76.43
1029;BME280;503;48.120;11.488;2022-07-01T11:36:45;95750.84;;;16.60;77.17
1029;BME280;503;48.120;11.488;2022-07-01T11:39:30;95740.34;;;16.76;76.20
1029;BME280;503;48.120;11.488;2022-07-01T11:42:08;95763.94;;;17.58;73.61
1029;BME280;503;48.120;11.488;2022-07-01T11:44:42;95739.44;;;17.26;72.53
1029;BME280;503;48.120;11.488;2022-07-01T11:47:10;95741.63;;;17.12;73.62
1029;BME280;503;48.120;11.488;2022-07-01T11:49:47;95749.75;;;17.03;74.73
1029;BME280;503;48.120;11.488;2022-07-01T11:52:13;95748.06;;;16.78;75.64
1029;BME280;503;48.120;11.488;2022-07-01T11:54:40;95745.31;;;17.20;75.23
1029;BME280;503;48.120;11.488;2022-07-01T11:57:19;95756.81;;;16.45;76.60
1029;BME280;503;48.120;11.488;2022-07-01T11:59:47;95753.50;;;16.69;76.18
1029;BME280;503;48.120;11.488;2022-07-01T12:02:14;95775.09;;;17.35;75.09
1029;BME280;503;48.120;11.488;2022-07-01T12:04:40;95737.53;;;17.27;73.55
1029;BME280;503;48.120;11.488;2022-07-01T12:07:07;95748.44;;;18.12;70.47
1029;BME280;503;48.120;11.488;2022-07-01T12:09:33;95731.09;;;17.52;71.37
1029;BME280;503;48.120;11.488;2022-07-01T12:11:59;95733.31;;;17.05;73.12
1029;BME280;503;48.120;11.488;2022-07-01T12:14:30;95754.66;;;17.22;74.60
1029;BME280;503;48.120;11.488;2022-07-01T12:16:58;95740.13;;;17.02;73.90
1029;BME280;503;48.120;11.488;2022-07-01T12:19:50;95763.13;;;17.12;74.92
1029;BME280;503;48.120;11.488;2022-07-01T12:22:25;95777.91;;;16.85;75.97
1029;BME280;503;48.120;11.488;2022-07-01T12:25:11;95782.53;;;16.76;75.73
1029;BME280;503;48.120;11.488;2022-07-01T12:27:39;95781.94;;;16.91;74.01
1029;BME280;503;48.120;11.488;2022-07-01T12:30:07;95783.19;;;16.94;74.87
1029;BME280;503;48.120;11.488;2022-07-01T12:32:36;95756.63;;;17.46;74.05
1029;BME280;503;48.120;11.488;2022-07-01T12:35:04;95771.91;;;17.66;73.78
1029;BME280;503;48.120;11.488;2022-07-01T12:37:37;95794.59;;;17.11;73.51
1029;BME280;503;48.120;11.488;2022-07-01T12:40:04;95806.09;;;16.70;74.27
1029;BME280;503;48.120;11.488;2022-07-01T12:42:46;95822.13;;;16.58;76.02
1029;BME280;503;48.120;11.488;2022-07-01T12:45:13;95829.06;;;17.09;73.96
1029;BME280;503;48.120;11.488;2022-07-01T12:47:44;95840.69;;;16.42;76.37
1029;BME280;503;48.120;11.488;2022-07-01T12:52:36;95823.63;;;17.18;73.75
1029;BME280;503;48.120;11.488;2022-07-01T12:55:22;95840.53;;;16.77;77.54
1029;BME280;503;48.120;11.488;2022-07-01T12:57:53;95843.91;;;17.49;75.97
1029;BME280;503;48.120;11.488;2022-07-01T13:00:20;95835.69;;;16.91;77.89
1029;BME280;503;48.120;11.488;2022-07-01T13:02:46;95845.91;;;16.77;77.74
1029;BME280;503;48.120;11.488;2022-07-01T13:05:12;95850.75;;;17.04;77.08
1029;BME280;503;48.120;11.488;2022-07-01T13:07:39;95813.53;;;17.15;76.61
1029;BME280;503;48.120;11.488;2022-07-01T13:10:04;95784.28;;;17.13;76.55
1029;BME280;503;48.120;11.488;2022-07-01T13:12:30;95778.00;;;17.76;75.89
1029;BME280;503;48.120;11.488;2022-07-01T13:14:56;95748.66;;;18.19;73.84
1029;BME280;503;48.120;11.488;2022-07-01T13:17:23;95741.13;;;18.01;73.56
1029;BME280;503;48.120;11.488;2022-07-01T13:19:48;95785.00;;;18.26;71.97
1029;BME280;503;48.120;11.488;2022-07-01T13:22:14;95787.28;;;17.66;72.67
1029;BME280;503;48.120;11.488;2022-07-01T13:24:40;95794.34;;;17.37;73.96
1029;BME280;503;48.120;11.488;2022-07-01T13:27:05;95804.78;;;17.72;73.83
1029;BME280;503;48.120;11.488;2022-07-01T13:29:31;95782.53;;;18.21;73.45
1029;BME280;503;48.120;11.488;2022-07-01T13:31:56;95763.16;;;18.67;73.50
1029;BME280;503;48.120;11.488;2022-07-01T13:34:22;95760.97;;;18.45;71.37
1029;BME280;503;48.120;11.488;2022-07-01T13:36:47;95761.00;;;18.21;70.73
1029;BME280;503;48.120;11.488;2022-07-01T13:39:12;95783.84;;;18.63;70.79
1029;BME280;503;48.120;11.488;2022-07-01T13:41:38;95800.16;;;18.18;69.42
1029;BME280;503;48.120;11.488;2022-07-01T13:44:03;95802.38;;;17.25;73.46
1029;BME280;503;48.120;11.488;2022-07-01T13:46:29;95816.44;;;17.43;72.75
1029;BME280;503;48.120;11.488;2022-07-01T13:48:54;95801.28;;;17.26;72.49
1029;BME280;503;48.120;11.488;2022-07-01T13:51:19;95805.19;;;17.62;71.88
1029;BME280;503;48.120;11.488;2022-07-01T13:53:44;95795.00;;;17.34;71.49
1029;BME280;503;48.120;11.488;2022-07-01T13:56:10;95846.53;;;17.57;73.47
1029;BME280;503;48.120;11.488;2022-07-01T13:58:35;95850.56;;;17.51;72.55
1029;BME280;503;48.120;11.488;2022-07-01T14:01:00;95848.50;;;18.02;72.54